createdAt,value
2023-03-16T00:02:25.201Z,1.06
2023-03-16T00:05:27.954Z,1.11
2023-03-16T00:08:30.717Z,1.09
2023-03-16T00:11:33.423Z,1.06
2023-03-16T00:14:36.567Z,1.03
2023-03-16T00:17:40.416Z,1.10
2023-03-16T00:20:43.011Z,1.16
2023-03-16T00:23:45.557Z,1.08
2023-03-16T00:26:48.788Z,0.99
2023-03-16T00:29:56.423Z,1.03
2023-03-16T00:33:01.987Z,0.94
2023-03-16T00:36:08.100Z,0.95
2023-03-16T00:39:11.927Z,0.94
2023-03-16T00:42:16.663Z,0.90
2023-03-16T00:45:19.244Z,1.00
2023-03-16T00:48:24.377Z,0.96
2023-03-16T00:51:27.036Z,0.89
2023-03-16T00:54:30.065Z,0.90
2023-03-16T00:57:32.973Z,0.90
2023-03-16T01:00:36.418Z,0.87
2023-03-16T01:03:40.608Z,0.92
2023-03-16T01:06:43.141Z,0.85
2023-03-16T01:09:45.687Z,0.80
2023-03-16T01:12:48.253Z,0.84
2023-03-16T01:15:51.621Z,0.82
2023-03-16T01:18:56.874Z,0.81
2023-03-16T01:21:59.535Z,0.78
2023-03-16T01:25:02.131Z,0.78
2023-03-16T01:28:04.687Z,0.77
2023-03-16T01:31:09.322Z,0.83
2023-03-16T01:34:16.624Z,0.87
2023-03-16T01:37:19.219Z,0.82
2023-03-16T01:40:22.084Z,0.79
2023-03-16T01:43:26.694Z,0.61
2023-03-16T01:46:30.204Z,0.48
2023-03-16T01:49:35.446Z,0.47
2023-03-16T01:52:38.607Z,0.43
2023-03-16T01:55:41.909Z,0.50
2023-03-16T01:58:45.728Z,0.56
2023-03-16T02:01:48.504Z,0.76
2023-03-16T02:04:56.571Z,0.64
2023-03-16T02:07:59.531Z,0.66
2023-03-16T02:11:02.238Z,0.82
2023-03-16T02:14:09.376Z,0.79
2023-03-16T02:17:12.530Z,0.78
2023-03-16T02:20:25.162Z,0.82
2023-03-16T02:23:27.876Z,0.68
2023-03-16T02:26:35.187Z,0.65
2023-03-16T02:30:01.482Z,0.63
2023-03-16T02:33:05.218Z,0.67
2023-03-16T02:36:08.692Z,0.85
2023-03-16T02:39:11.311Z,0.93
2023-03-16T02:42:15.973Z,0.83
2023-03-16T02:45:19.966Z,0.81
2023-03-16T02:48:24.808Z,0.78
2023-03-16T02:51:27.272Z,0.72
2023-03-16T02:54:30.338Z,0.65
2023-03-16T02:57:33.208Z,0.54
2023-03-16T03:00:37.334Z,0.51
2023-03-16T03:03:39.919Z,0.47
2023-03-16T03:06:42.731Z,0.44
2023-03-16T03:09:45.419Z,0.51
2023-03-16T03:12:49.453Z,0.47
2023-03-16T03:15:53.703Z,0.46
2023-03-16T03:18:56.304Z,0.50
2023-03-16T03:21:58.826Z,0.49
2023-03-16T03:25:02.890Z,0.42
2023-03-16T03:28:06.469Z,0.35
2023-03-16T03:31:14.545Z,0.41
2023-03-16T03:34:17.043Z,0.44
2023-03-16T03:37:19.946Z,0.45
2023-03-16T03:40:22.811Z,0.67
2023-03-16T03:43:25.446Z,0.78
2023-03-16T03:46:29.367Z,0.81
2023-03-16T03:49:32.259Z,0.79
2023-03-16T03:52:34.802Z,0.76
2023-03-16T03:55:37.358Z,0.74
2023-03-16T03:58:39.894Z,0.68
2023-03-16T04:01:43.782Z,0.72
2023-03-16T04:04:46.286Z,0.72
2023-03-16T04:07:50.704Z,0.67
2023-03-16T04:10:53.256Z,0.59
2023-03-16T04:13:55.727Z,0.52
2023-03-16T04:16:59.699Z,0.54
2023-03-16T04:20:05.331Z,0.53
2023-03-16T04:23:07.846Z,0.51
2023-03-16T04:26:10.588Z,0.40
2023-03-16T04:29:14.334Z,0.47
2023-03-16T04:32:21.886Z,0.45
2023-03-16T04:35:25.675Z,0.50
2023-03-16T04:38:33.789Z,0.50
2023-03-16T04:41:36.357Z,0.47
2023-03-16T04:44:44.253Z,0.45
2023-03-16T04:47:49.628Z,0.46
2023-03-16T04:50:52.249Z,0.50
2023-03-16T04:53:55.363Z,0.43
2023-03-16T04:56:57.934Z,0.50
2023-03-16T05:00:00.822Z,0.51
2023-03-16T05:03:05.187Z,0.46
2023-03-16T05:06:08.264Z,0.48
2023-03-16T05:09:10.852Z,0.49
2023-03-16T05:12:13.465Z,0.50
2023-03-16T05:15:16.257Z,0.43
2023-03-16T05:18:20.092Z,0.44
2023-03-16T05:21:22.791Z,0.45
2023-03-16T05:24:25.469Z,0.42
2023-03-16T05:27:28.177Z,0.44
2023-03-16T05:30:31.280Z,0.46
2023-03-16T05:33:35.561Z,0.40
2023-03-16T05:36:38.115Z,0.39
2023-03-16T05:39:40.745Z,0.46
2023-03-16T05:42:44.112Z,0.56
2023-03-16T05:45:46.936Z,0.59
2023-03-16T05:48:51.155Z,0.61
2023-03-16T05:51:54.821Z,0.63
2023-03-16T05:54:57.546Z,0.66
2023-03-16T05:58:00.138Z,0.70
2023-03-16T06:01:02.963Z,0.75
2023-03-16T06:04:07.387Z,0.75
2023-03-16T06:07:10.714Z,0.78
2023-03-16T06:10:13.770Z,0.91
2023-03-16T06:13:16.449Z,0.94
2023-03-16T06:16:19.095Z,0.94
2023-03-16T06:19:23.019Z,1.00
2023-03-16T06:22:25.654Z,1.10
2023-03-16T06:25:28.205Z,1.18
2023-03-16T06:28:30.749Z,1.27
2023-03-16T06:31:34.083Z,1.29
2023-03-16T06:34:38.391Z,1.31
2023-03-16T06:37:41.079Z,1.36
2023-03-16T06:40:43.649Z,1.47
2023-03-16T06:43:47.252Z,1.51
2023-03-16T06:46:49.767Z,1.60
2023-03-16T06:49:55.238Z,1.67
2023-03-16T06:52:57.770Z,1.75
2023-03-16T06:56:01.164Z,1.83
2023-03-16T06:59:03.695Z,1.87
2023-03-16T07:02:06.930Z,1.98
2023-03-16T07:05:13.125Z,2.06
2023-03-16T07:08:16.109Z,2.17
2023-03-16T07:11:18.631Z,2.30
2023-03-16T07:14:23.254Z,2.44
2023-03-16T07:17:26.001Z,2.59
2023-03-16T07:20:32.242Z,2.73
2023-03-16T07:23:34.881Z,2.86
2023-03-16T07:26:37.685Z,3.06
2023-03-16T07:29:40.192Z,3.18
2023-03-16T07:32:42.934Z,3.33
2023-03-16T07:35:46.933Z,3.44
2023-03-16T07:38:49.498Z,3.62
2023-03-16T07:41:52.102Z,3.82
2023-03-16T07:44:54.755Z,3.94
2023-03-16T07:47:57.358Z,4.15
2023-03-16T07:51:01.672Z,4.16
2023-03-16T07:54:04.364Z,4.32
2023-03-16T07:57:07.208Z,4.49
2023-03-16T08:00:11.158Z,4.63
2023-03-16T08:03:13.962Z,4.72
2023-03-16T08:06:18.164Z,4.94
2023-03-16T08:09:21.304Z,5.07
2023-03-16T08:12:23.962Z,5.20
2023-03-16T08:15:26.668Z,5.29
2023-03-16T08:18:29.785Z,5.40
2023-03-16T08:21:35.121Z,5.51
2023-03-16T08:24:40.556Z,5.72
2023-03-16T08:27:43.372Z,5.80
2023-03-16T08:30:47.930Z,5.93
2023-03-16T08:33:50.830Z,6.13
2023-03-16T08:36:55.326Z,6.33
2023-03-16T08:40:00.438Z,6.42
2023-03-16T08:43:03.804Z,6.59
2023-03-16T08:46:06.938Z,6.55
2023-03-16T08:49:09.708Z,6.68
2023-03-16T08:52:13.924Z,6.95
2023-03-16T08:55:16.850Z,7.03
2023-03-16T08:58:19.834Z,7.16
2023-03-16T09:01:22.691Z,7.31
2023-03-16T09:04:25.364Z,7.26
2023-03-16T09:07:29.291Z,7.30
2023-03-16T09:10:33.139Z,7.62
2023-03-16T09:13:36.444Z,7.83
2023-03-16T09:16:39.432Z,8.04
2023-03-16T09:19:52.166Z,8.22
2023-03-16T09:22:57.571Z,8.42
2023-03-16T09:26:01.623Z,8.47
2023-03-16T09:29:06.816Z,8.91
2023-03-16T09:32:10.472Z,9.14
2023-03-16T09:35:13.019Z,9.18
2023-03-16T09:38:17.667Z,9.20
2023-03-16T09:41:32.405Z,9.59
2023-03-16T09:44:40.480Z,9.05
2023-03-16T09:47:43.575Z,9.06
2023-03-16T09:50:49.265Z,9.88
2023-03-16T09:53:59.169Z,10.80
2023-03-16T09:57:02.272Z,11.34
2023-03-16T10:00:17.248Z,11.12
2023-03-16T10:03:32.280Z,11.23
2023-03-16T10:06:37.233Z,11.38
2023-03-16T10:09:44.536Z,12.00
2023-03-16T10:12:51.515Z,12.34
2023-03-16T10:15:55.295Z,12.32
2023-03-16T10:19:02.398Z,12.23
2023-03-16T10:22:18.524Z,12.66
2023-03-16T10:25:25.051Z,12.15
2023-03-16T10:28:29.425Z,12.11
2023-03-16T10:31:35.080Z,11.68
2023-03-16T10:34:37.755Z,11.53
2023-03-16T10:37:40.536Z,11.91
2023-03-16T10:40:44.588Z,11.46
2023-03-16T10:43:49.217Z,11.68
2023-03-16T10:47:00.703Z,11.99
2023-03-16T10:50:14.272Z,12.10
2023-03-16T10:53:20.963Z,12.24
2023-03-16T10:56:28.123Z,12.18
2023-03-16T10:59:34.209Z,12.43
2023-03-16T11:02:36.805Z,11.94
2023-03-16T11:05:39.622Z,12.25
2023-03-16T11:08:42.442Z,11.99
2023-03-16T11:11:49.905Z,11.81
2023-03-16T11:14:54.010Z,11.94
2023-03-16T11:17:57.437Z,12.05
2023-03-16T11:21:04.989Z,12.54
2023-03-16T11:24:17.083Z,12.46
2023-03-16T11:27:26.147Z,12.44
2023-03-16T11:30:31.452Z,12.11
2023-03-16T11:33:34.822Z,12.57
2023-03-16T11:36:45.624Z,12.93
2023-03-16T11:39:56.361Z,13.24
2023-03-16T11:43:06.139Z,13.24
2023-03-16T11:46:11.871Z,13.09
2023-03-16T11:49:32.695Z,13.08
2023-03-16T11:52:46.263Z,12.96
2023-03-16T11:56:00.640Z,12.67
2023-03-16T11:59:23.030Z,12.93
2023-03-16T12:02:46.346Z,13.30
2023-03-16T12:05:57.100Z,13.56
2023-03-16T12:09:16.896Z,13.99
2023-03-16T12:12:30.838Z,13.30
2023-03-16T12:15:38.432Z,13.66
2023-03-16T12:18:44.777Z,13.70
2023-03-16T12:21:49.952Z,14.16
2023-03-16T12:24:53.288Z,14.76
2023-03-16T12:27:57.907Z,15.22
2023-03-16T12:31:09.458Z,15.87
2023-03-16T12:34:20.711Z,16.95
2023-03-16T12:37:29.544Z,17.52
2023-03-16T12:40:34.780Z,17.75
2023-03-16T12:43:49.719Z,18.64
2023-03-16T12:46:57.685Z,18.50
2023-03-16T12:50:06.051Z,19.79
2023-03-16T12:53:08.656Z,19.94
2023-03-16T12:56:12.855Z,19.79
2023-03-16T12:59:19.625Z,19.77
2023-03-16T13:02:26.955Z,18.81
2023-03-16T13:05:32.110Z,20.45
2023-03-16T13:08:42.575Z,21.38
2023-03-16T13:11:50.228Z,25.20
2023-03-16T13:14:54.783Z,29.85
2023-03-16T13:18:23.278Z,30.48
2023-03-16T13:21:36.503Z,32.20
2023-03-16T13:24:41.002Z,32.80
2023-03-16T13:27:45.538Z,31.13
2023-03-16T13:30:49.485Z,30.75
2023-03-16T13:33:55.583Z,27.22
2023-03-16T13:36:59.655Z,24.00
2023-03-16T13:40:04.393Z,23.59
2023-03-16T13:43:07.075Z,23.01
2023-03-16T13:46:17.132Z,23.74
2023-03-16T13:49:21.329Z,23.47
2023-03-16T13:52:26.834Z,22.31
2023-03-16T13:55:32.859Z,20.33
2023-03-16T13:58:37.852Z,20.98
2023-03-16T14:01:45.515Z,21.51
2023-03-16T14:04:49.755Z,27.11
2023-03-16T14:07:52.700Z,30.12
2023-03-16T14:10:59.820Z,33.25
2023-03-16T14:14:15.983Z,36.67
2023-03-16T14:17:20.688Z,36.27
2023-03-16T14:20:26.004Z,33.95
2023-03-16T14:23:34.091Z,34.75
2023-03-16T14:26:44.129Z,33.57
2023-03-16T14:29:47.373Z,33.30
2023-03-16T14:32:58.786Z,32.26
2023-03-16T14:36:13.017Z,29.72
2023-03-16T14:39:18.194Z,27.26
2023-03-16T14:42:24.362Z,25.33
2023-03-16T14:45:31.627Z,26.89
2023-03-16T14:48:35.278Z,25.21
2023-03-16T14:51:41.083Z,25.08
2023-03-16T14:54:43.696Z,23.91
2023-03-16T14:57:46.944Z,24.61
2023-03-16T15:00:53.259Z,24.80
2023-03-16T15:03:56.586Z,23.53
2023-03-16T15:07:00.720Z,24.52
2023-03-16T15:10:09.822Z,26.28
2023-03-16T15:13:16.899Z,26.24
2023-03-16T15:16:21.680Z,25.34
2023-03-16T15:19:24.252Z,24.99
2023-03-16T15:22:32.356Z,24.50
2023-03-16T15:25:36.849Z,25.21
2023-03-16T15:28:39.603Z,25.00
2023-03-16T15:31:42.350Z,25.32
2023-03-16T15:34:46.442Z,23.84
2023-03-16T15:37:50.454Z,22.67
2023-03-16T15:40:53.562Z,22.39
2023-03-16T15:44:00.657Z,21.63
2023-03-16T15:47:04.446Z,20.15
2023-03-16T15:50:08.514Z,19.77
2023-03-16T15:53:29.829Z,19.56
2023-03-16T15:56:47.224Z,18.79
2023-03-16T15:59:53.823Z,18.41
2023-03-16T16:02:57.862Z,18.19
2023-03-16T16:06:00.348Z,17.68
2023-03-16T16:09:04.544Z,17.21
2023-03-16T16:12:10.429Z,16.69
2023-03-16T16:15:20.048Z,16.52
2023-03-16T16:18:30.171Z,16.54
2023-03-16T16:21:35.039Z,16.12
2023-03-16T16:24:39.604Z,16.03
2023-03-16T16:27:42.420Z,16.01
2023-03-16T16:30:45.377Z,15.82
2023-03-16T16:33:47.986Z,15.62
2023-03-16T16:36:50.788Z,15.43
2023-03-16T16:39:54.836Z,15.07
2023-03-16T16:42:57.404Z,14.80
2023-03-16T16:46:00.345Z,14.69
2023-03-16T16:49:06.685Z,14.38
2023-03-16T16:52:12.366Z,14.07
2023-03-16T16:55:16.332Z,13.82
2023-03-16T16:58:24.493Z,13.59
2023-03-16T17:01:29.663Z,13.30
2023-03-16T17:04:32.521Z,13.17
2023-03-16T17:07:35.171Z,12.87
2023-03-16T17:10:40.340Z,12.65
2023-03-16T17:13:43.116Z,12.50
2023-03-16T17:16:47.565Z,12.34
2023-03-16T17:19:50.140Z,12.27
2023-03-16T17:22:54.952Z,12.12
2023-03-16T17:26:00.876Z,12.03
2023-03-16T17:29:06.964Z,11.80
2023-03-16T17:32:18.654Z,11.65
2023-03-16T17:35:21.526Z,11.53
2023-03-16T17:38:25.611Z,11.46
2023-03-16T17:41:32.961Z,11.20
2023-03-16T17:44:39.016Z,11.21
2023-03-16T17:47:41.633Z,11.11
2023-03-16T17:50:46.060Z,11.06
2023-03-16T17:53:49.011Z,11.10
2023-03-16T17:56:53.643Z,11.13
2023-03-16T17:59:56.442Z,11.08
2023-03-16T18:03:00.874Z,11.03
2023-03-16T18:06:04.636Z,10.92
2023-03-16T18:09:07.583Z,10.79
2023-03-16T18:12:30.204Z,10.68
2023-03-16T18:15:34.869Z,10.66
2023-03-16T18:18:39.577Z,10.54
2023-03-16T18:21:42.240Z,10.67
2023-03-16T18:24:44.939Z,10.55
2023-03-16T18:27:49.588Z,10.30
2023-03-16T18:30:53.576Z,9.95
2023-03-16T18:33:57.440Z,10.01
2023-03-16T18:37:06.887Z,10.13
2023-03-16T18:40:12.642Z,10.09
2023-03-16T18:43:18.132Z,9.73
2023-03-16T18:46:26.211Z,9.29
2023-03-16T18:49:32.839Z,9.09
2023-03-16T18:52:37.111Z,9.08
2023-03-16T18:55:44.937Z,9.07
2023-03-16T18:58:49.159Z,8.85
2023-03-16T19:01:51.744Z,8.82
2023-03-16T19:04:54.735Z,8.76
2023-03-16T19:07:57.500Z,8.76
2023-03-16T19:11:02.103Z,8.72
2023-03-16T19:14:14.310Z,8.66
2023-03-16T19:17:16.966Z,8.58
2023-03-16T19:20:21.129Z,8.59
2023-03-16T19:23:26.383Z,8.59
2023-03-16T19:26:29.405Z,8.56
2023-03-16T19:29:35.132Z,8.42
2023-03-16T19:32:38.701Z,8.49
2023-03-16T19:35:51.366Z,8.40
2023-03-16T19:38:54.870Z,8.45
2023-03-16T19:41:59.138Z,8.35
2023-03-16T19:45:03.963Z,8.25
2023-03-16T19:48:11.655Z,8.24
2023-03-16T19:51:15.949Z,8.22
2023-03-16T19:54:22.577Z,8.14
2023-03-16T19:57:25.263Z,8.08
2023-03-16T20:00:30.976Z,7.98
2023-03-16T20:03:36.432Z,7.86
2023-03-16T20:06:39.058Z,8.06
2023-03-16T20:09:41.657Z,8.00
2023-03-16T20:12:44.338Z,8.01
2023-03-16T20:15:48.417Z,7.92
2023-03-16T20:18:54.755Z,7.79
2023-03-16T20:21:57.222Z,7.76
2023-03-16T20:25:02.200Z,7.71
2023-03-16T20:28:05.302Z,7.52
2023-03-16T20:31:18.412Z,7.48
2023-03-16T20:34:23.522Z,7.39
2023-03-16T20:37:27.840Z,7.45
2023-03-16T20:40:30.581Z,7.35
2023-03-16T20:43:33.466Z,7.35
2023-03-16T20:46:41.090Z,7.28
2023-03-16T20:49:44.542Z,7.14
2023-03-16T20:52:47.788Z,7.08
2023-03-16T20:55:50.723Z,6.97
2023-03-16T20:58:56.075Z,6.82
2023-03-16T21:02:01.088Z,6.84
2023-03-16T21:05:06.458Z,6.80
2023-03-16T21:08:09.476Z,6.68
2023-03-16T21:11:21.205Z,6.68
2023-03-16T21:14:24.716Z,6.62
2023-03-16T21:17:31.817Z,6.62
2023-03-16T21:20:36.550Z,6.67
2023-03-16T21:23:39.169Z,6.57
2023-03-16T21:26:43.261Z,6.56
2023-03-16T21:29:45.940Z,6.57
2023-03-16T21:32:49.908Z,6.47
2023-03-16T21:35:52.515Z,6.52
2023-03-16T21:38:56.404Z,6.54
2023-03-16T21:41:59.024Z,6.49
2023-03-16T21:45:01.795Z,6.51
2023-03-16T21:48:06.283Z,6.62
2023-03-16T21:51:14.370Z,6.56
2023-03-16T21:54:19.209Z,6.65
2023-03-16T21:57:22.111Z,6.64
2023-03-16T22:00:26.769Z,6.60
2023-03-16T22:03:47.978Z,6.62
2023-03-16T22:06:52.141Z,6.61
2023-03-16T22:09:54.688Z,6.57
2023-03-16T22:12:58.248Z,6.63
2023-03-16T22:16:00.914Z,6.61
2023-03-16T22:19:05.815Z,6.64
2023-03-16T22:22:11.189Z,6.52
2023-03-16T22:25:15.257Z,6.51
2023-03-16T22:28:18.004Z,6.49
2023-03-16T22:31:22.382Z,6.53
2023-03-16T22:34:32.493Z,6.45
2023-03-16T22:37:35.179Z,6.40
2023-03-16T22:40:39.220Z,6.30
2023-03-16T22:43:44.046Z,6.30
2023-03-16T22:46:46.797Z,6.29
2023-03-16T22:49:51.048Z,6.20
2023-03-16T22:52:55.627Z,6.08
2023-03-16T22:55:58.304Z,6.01
2023-03-16T22:59:03.619Z,6.04
2023-03-16T23:02:07.154Z,5.97
2023-03-16T23:05:19.703Z,5.85
2023-03-16T23:08:24.188Z,5.80
2023-03-16T23:11:28.652Z,5.86
2023-03-16T23:14:33.941Z,5.76
2023-03-16T23:17:36.593Z,5.69
2023-03-16T23:20:40.528Z,5.61
2023-03-16T23:23:48.311Z,5.72
2023-03-16T23:26:59.781Z,5.59
2023-03-16T23:30:02.473Z,5.49
2023-03-16T23:33:05.227Z,5.54
2023-03-16T23:36:15.294Z,5.50
2023-03-16T23:39:17.936Z,5.63
2023-03-16T23:42:20.497Z,5.55
2023-03-16T23:45:27.300Z,5.55
2023-03-16T23:48:30.003Z,5.60
2023-03-16T23:51:37.024Z,5.56
2023-03-16T23:54:39.666Z,5.53
2023-03-16T23:57:42.323Z,5.52
